Diomede, Alaska
Current Conditions -  °F | °C
As of 9:58 AM on Friday 31 Oct 2014 (Local Time) from PATE Reporting Station
Clear Clear  
Wind Chill: 11°   Ceiling: Unl
Heat Index: 11°   Visibility: 10mi
Dew Point:   Wind: 3mph
Humidity: 88%   Direction: 60°ENE
Pressure: 29.61"   Gusts: NA
Location:  65.1617°N, 164.975°W
Report Text: PATE 311758Z AUTO 06003KT 10SM CLR M12/M13 A2961 RMK AO2 SLP041 T11171133 11100 21122 58012 FZRANO
Loading
Personal Weather Stations






























Interactive Weather Map
Tropical Storm Tracking
New forecast layout! Learn more

10-Day Weather Forecast

Advertisements
Track Severe Weather on mobile